sensor_id;sensor_type;location;lat;lon;timestamp;P1;durP1;ratioP1;P2;durP2;ratioP2
67195;SDS011;54122;53.538;49.366;2023-08-08T03:45:49;2.13;;;1.20;;
67195;SDS011;54122;53.538;49.366;2023-08-08T03:48:15;4.97;;;1.40;;
67195;SDS011;54122;53.538;49.366;2023-08-08T03:50:41;2.60;;;1.30;;
67195;SDS011;54122;53.538;49.366;2023-08-08T03:53:08;2.25;;;1.20;;
67195;SDS011;54122;53.538;49.366;2023-08-08T03:55:34;4.88;;;1.30;;
67195;SDS011;54122;53.538;49.366;2023-08-08T03:58:00;3.22;;;1.48;;
67195;SDS011;54122;53.538;49.366;2023-08-08T04:00:26;7.38;;;1.45;;
67195;SDS011;54122;53.538;49.366;2023-08-08T04:02:52;4.93;;;1.17;;
67195;SDS011;54122;53.538;49.366;2023-08-08T04:05:18;3.53;;;1.70;;
67195;SDS011;54122;53.538;49.366;2023-08-08T04:07:44;5.57;;;1.58;;
67195;SDS011;54122;53.538;49.366;2023-08-08T04:10:10;5.32;;;1.60;;
67195;SDS011;54122;53.538;49.366;2023-08-08T04:12:36;7.53;;;1.50;;
67195;SDS011;54122;53.538;49.366;2023-08-08T04:15:03;2.90;;;1.27;;
67195;SDS011;54122;53.538;49.366;2023-08-08T04:17:29;6.07;;;1.80;;
67195;SDS011;54122;53.538;49.366;2023-08-08T04:19:55;5.32;;;2.72;;
67195;SDS011;54122;53.538;49.366;2023-08-08T04:22:22;5.97;;;1.50;;
67195;SDS011;54122;53.538;49.366;2023-08-08T04:24:48;5.28;;;1.40;;
67195;SDS011;54122;53.538;49.366;2023-08-08T04:27:14;7.00;;;1.30;;
67195;SDS011;54122;53.538;49.366;2023-08-08T04:29:40;2.97;;;1.40;;
67195;SDS011;54122;53.538;49.366;2023-08-08T04:32:06;2.60;;;1.40;;
67195;SDS011;54122;53.538;49.366;2023-08-08T04:34:32;4.85;;;1.35;;
67195;SDS011;54122;53.538;49.366;2023-08-08T04:36:59;3.25;;;1.30;;
67195;SDS011;54122;53.538;49.366;2023-08-08T04:39:25;6.78;;;1.58;;
67195;SDS011;54122;53.538;49.366;2023-08-08T04:41:51;5.97;;;1.55;;
67195;SDS011;54122;53.538;49.366;2023-08-08T04:44:17;9.55;;;1.48;;
67195;SDS011;54122;53.538;49.366;2023-08-08T04:46:43;4.78;;;1.55;;
67195;SDS011;54122;53.538;49.366;2023-08-08T04:49:09;3.63;;;1.67;;
67195;SDS011;54122;53.538;49.366;2023-08-08T04:51:35;5.05;;;1.40;;
67195;SDS011;54122;53.538;49.366;2023-08-08T04:54:02;7.05;;;1.50;;
67195;SDS011;54122;53.538;49.366;2023-08-08T04:56:28;2.97;;;1.50;;
67195;SDS011;54122;53.538;49.366;2023-08-08T04:58:54;5.15;;;1.65;;
67195;SDS011;54122;53.538;49.366;2023-08-08T05:01:20;6.82;;;1.48;;
67195;SDS011;54122;53.538;49.366;2023-08-08T05:03:47;4.85;;;1.83;;
67195;SDS011;54122;53.538;49.366;2023-08-08T05:06:13;9.85;;;1.55;;
67195;SDS011;54122;53.538;49.366;2023-08-08T05:08:39;3.78;;;1.77;;
67195;SDS011;54122;53.538;49.366;2023-08-08T05:11:05;7.82;;;1.90;;
67195;SDS011;54122;53.538;49.366;2023-08-08T05:13:31;2.85;;;1.60;;
67195;SDS011;54122;53.538;49.366;2023-08-08T05:15:57;10.10;;;1.83;;
67195;SDS011;54122;53.538;49.366;2023-08-08T05:18:24;7.57;;;1.70;;
67195;SDS011;54122;53.538;49.366;2023-08-08T05:20:50;10.73;;;1.70;;
67195;SDS011;54122;53.538;49.366;2023-08-08T05:23:16;6.30;;;1.70;;
67195;SDS011;54122;53.538;49.366;2023-08-08T05:25:42;5.00;;;1.80;;
67195;SDS011;54122;53.538;49.366;2023-08-08T05:28:08;3.35;;;1.85;;
67195;SDS011;54122;53.538;49.366;2023-08-08T05:30:34;4.15;;;1.95;;
67195;SDS011;54122;53.538;49.366;2023-08-08T05:33:00;4.82;;;1.80;;
67195;SDS011;54122;53.538;49.366;2023-08-08T05:35:26;2.63;;;1.40;;
67195;SDS011;54122;53.538;49.366;2023-08-08T05:37:52;7.10;;;1.58;;
67195;SDS011;54122;53.538;49.366;2023-08-08T05:40:19;1.75;;;1.40;;
67195;SDS011;54122;53.538;49.366;2023-08-08T05:42:45;2.00;;;1.33;;
67195;SDS011;54122;53.538;49.366;2023-08-08T05:45:11;3.03;;;1.40;;
67195;SDS011;54122;53.538;49.366;2023-08-08T05:47:37;3.97;;;1.58;;
67195;SDS011;54122;53.538;49.366;2023-08-08T05:50:03;3.40;;;1.48;;
67195;SDS011;54122;53.538;49.366;2023-08-08T05:52:30;4.72;;;1.67;;
67195;SDS011;54122;53.538;49.366;2023-08-08T05:54:56;3.53;;;1.50;;
67195;SDS011;54122;53.538;49.366;2023-08-08T05:57:25;3.15;;;1.70;;
67195;SDS011;54122;53.538;49.366;2023-08-08T05:59:51;4.03;;;1.63;;
67195;SDS011;54122;53.538;49.366;2023-08-08T06:02:18;4.75;;;1.70;;
67195;SDS011;54122;53.538;49.366;2023-08-08T06:04:44;6.82;;;1.40;;
67195;SDS011;54122;53.538;49.366;2023-08-08T06:07:10;3.90;;;1.67;;
67195;SDS011;54122;53.538;49.366;2023-08-08T06:09:37;4.53;;;1.67;;
67195;SDS011;54122;53.538;49.366;2023-08-08T06:12:04;4.82;;;1.52;;
67195;SDS011;54122;53.538;49.366;2023-08-08T06:14:31;7.05;;;1.77;;
67195;SDS011;54122;53.538;49.366;2023-08-08T06:16:57;11.98;;;1.80;;
67195;SDS011;54122;53.538;49.366;2023-08-08T06:19:23;5.05;;;1.20;;
67195;SDS011;54122;53.538;49.366;2023-08-08T06:21:49;4.30;;;1.52;;
67195;SDS011;54122;53.538;49.366;2023-08-08T06:24:15;2.05;;;1.40;;
67195;SDS011;54122;53.538;49.366;2023-08-08T06:26:41;7.90;;;1.80;;
67195;SDS011;54122;53.538;49.366;2023-08-08T06:29:07;5.72;;;2.00;;
67195;SDS011;54122;53.538;49.366;2023-08-08T06:31:33;3.03;;;1.48;;
67195;SDS011;54122;53.538;49.366;2023-08-08T06:34:00;3.53;;;1.70;;
67195;SDS011;54122;53.538;49.366;2023-08-08T06:36:26;2.03;;;1.27;;
67195;SDS011;54122;53.538;49.366;2023-08-08T06:38:52;4.72;;;1.55;;
67195;SDS011;54122;53.538;49.366;2023-08-08T06:41:19;7.85;;;1.50;;
67195;SDS011;54122;53.538;49.366;2023-08-08T06:43:45;6.07;;;2.10;;
67195;SDS011;54122;53.538;49.366;2023-08-08T06:46:11;5.45;;;1.40;;
67195;SDS011;54122;53.538;49.366;2023-08-08T06:48:37;2.15;;;1.45;;
67195;SDS011;54122;53.538;49.366;2023-08-08T06:51:04;7.88;;;1.35;;
67195;SDS011;54122;53.538;49.366;2023-08-08T06:53:30;3.33;;;1.08;;
67195;SDS011;54122;53.538;49.366;2023-08-08T06:55:56;2.72;;;1.75;;
67195;SDS011;54122;53.538;49.366;2023-08-08T06:58:23;7.57;;;1.60;;
67195;SDS011;54122;53.538;49.366;2023-08-08T07:00:50;3.67;;;1.42;;
67195;SDS011;54122;53.538;49.366;2023-08-08T07:03:16;3.15;;;1.30;;
67195;SDS011;54122;53.538;49.366;2023-08-08T07:05:42;5.70;;;1.70;;
67195;SDS011;54122;53.538;49.366;2023-08-08T07:08:09;8.48;;;1.80;;
67195;SDS011;54122;53.538;49.366;2023-08-08T07:10:35;1.50;;;1.23;;
67195;SDS011;54122;53.538;49.366;2023-08-08T07:13:01;5.32;;;1.48;;
67195;SDS011;54122;53.538;49.366;2023-08-08T07:15:28;4.40;;;1.50;;
67195;SDS011;54122;53.538;49.366;2023-08-08T07:17:54;2.38;;;1.52;;
67195;SDS011;54122;53.538;49.366;2023-08-08T07:20:20;4.18;;;1.50;;
67195;SDS011;54122;53.538;49.366;2023-08-08T07:22:46;5.22;;;1.50;;
67195;SDS011;54122;53.538;49.366;2023-08-08T07:25:13;4.45;;;1.20;;
67195;SDS011;54122;53.538;49.366;2023-08-08T07:27:39;3.53;;;1.30;;
67195;SDS011;54122;53.538;49.366;2023-08-08T07:30:05;4.80;;;1.50;;
67195;SDS011;54122;53.538;49.366;2023-08-08T07:32:32;6.65;;;1.40;;
67195;SDS011;54122;53.538;49.366;2023-08-08T07:34:59;4.28;;;1.30;;
67195;SDS011;54122;53.538;49.366;2023-08-08T07:37:28;1.30;;;1.20;;
67195;SDS011;54122;53.538;49.366;2023-08-08T07:39:54;1.80;;;1.10;;
67195;SDS011;54122;53.538;49.366;2023-08-08T07:42:20;2.60;;;1.30;;
67195;SDS011;54122;53.538;49.366;2023-08-08T07:44:46;1.50;;;1.27;;
67195;SDS011;54122;53.538;49.366;2023-08-08T07:47:12;3.17;;;1.30;;
67195;SDS011;54122;53.538;49.366;2023-08-08T07:49:39;1.55;;;1.17;;
67195;SDS011;54122;53.538;49.366;2023-08-08T07:52:05;1.63;;;1.10;;
67195;SDS011;54122;53.538;49.366;2023-08-08T07:54:33;2.28;;;1.27;;
67195;SDS011;54122;53.538;49.366;2023-08-08T07:57:00;2.53;;;1.35;;
67195;SDS011;54122;53.538;49.366;2023-08-08T07:59:26;1.30;;;1.20;;
67195;SDS011;54122;53.538;49.366;2023-08-08T08:01:52;1.85;;;1.10;;
67195;SDS011;54122;53.538;49.366;2023-08-08T08:04:18;2.10;;;1.00;;
67195;SDS011;54122;53.538;49.366;2023-08-08T08:06:45;4.30;;;1.20;;
67195;SDS011;54122;53.538;49.366;2023-08-08T08:09:11;1.45;;;1.10;;
67195;SDS011;54122;53.538;49.366;2023-08-08T08:11:37;3.10;;;1.17;;
67195;SDS011;54122;53.538;49.366;2023-08-08T08:14:03;3.45;;;1.33;;
67195;SDS011;54122;53.538;49.366;2023-08-08T08:16:30;3.42;;;1.25;;
67195;SDS011;54122;53.538;49.366;2023-08-08T08:19:00;4.17;;;1.30;;
67195;SDS011;54122;53.538;49.366;2023-08-08T08:21:27;1.23;;;0.90;;
67195;SDS011;54122;53.538;49.366;2023-08-08T08:23:53;2.33;;;1.15;;
67195;SDS011;54122;53.538;49.366;2023-08-08T08:26:19;3.38;;;1.00;;
67195;SDS011;54122;53.538;49.366;2023-08-08T08:28:45;1.35;;;1.17;;
67195;SDS011;54122;53.538;49.366;2023-08-08T08:31:12;5.20;;;1.25;;
67195;SDS011;54122;53.538;49.366;2023-08-08T08:33:38;1.45;;;1.00;;
67195;SDS011;54122;53.538;49.366;2023-08-08T08:36:04;0.82;;;0.80;;
67195;SDS011;54122;53.538;49.366;2023-08-08T08:38:30;1.98;;;0.90;;
67195;SDS011;54122;53.538;49.366;2023-08-08T08:40:57;5.22;;;1.10;;
67195;SDS011;54122;53.538;49.366;2023-08-08T08:43:23;1.85;;;0.95;;
67195;SDS011;54122;53.538;49.366;2023-08-08T08:45:51;2.28;;;1.08;;
67195;SDS011;54122;53.538;49.366;2023-08-08T08:48:19;2.65;;;1.15;;
67195;SDS011;54122;53.538;49.366;2023-08-08T08:50:47;3.55;;;1.02;;
67195;SDS011;54122;53.538;49.366;2023-08-08T08:53:14;3.65;;;0.93;;
67195;SDS011;54122;53.538;49.366;2023-08-08T08:55:43;2.67;;;1.20;;
67195;SDS011;54122;53.538;49.366;2023-08-08T08:58:09;5.50;;;0.90;;
67195;SDS011;54122;53.538;49.366;2023-08-08T09:00:36;0.90;;;0.85;;
67195;SDS011;54122;53.538;49.366;2023-08-08T09:03:03;1.40;;;0.90;;
67195;SDS011;54122;53.538;49.366;2023-08-08T09:05:29;3.55;;;0.88;;
67195;SDS011;54122;53.538;49.366;2023-08-08T09:07:57;2.50;;;0.98;;
67195;SDS011;54122;53.538;49.366;2023-08-08T09:10:23;3.00;;;1.20;;
67195;SDS011;54122;53.538;49.366;2023-08-08T09:12:50;6.47;;;1.10;;
67195;SDS011;54122;53.538;49.366;2023-08-08T09:15:16;7.10;;;1.10;;
67195;SDS011;54122;53.538;49.366;2023-08-08T09:17:43;4.45;;;1.00;;
67195;SDS011;54122;53.538;49.366;2023-08-08T09:20:11;1.67;;;1.10;;
67195;SDS011;54122;53.538;49.366;2023-08-08T09:22:38;1.42;;;0.70;;
67195;SDS011;54122;53.538;49.366;2023-08-08T09:25:05;1.67;;;0.90;;
67195;SDS011;54122;53.538;49.366;2023-08-08T09:27:33;1.42;;;0.90;;
67195;SDS011;54122;53.538;49.366;2023-08-08T09:30:00;0.95;;;0.85;;
67195;SDS011;54122;53.538;49.366;2023-08-08T09:32:30;4.13;;;0.90;;
67195;SDS011;54122;53.538;49.366;2023-08-08T09:34:57;1.80;;;1.00;;
67195;SDS011;54122;53.538;49.366;2023-08-08T09:37:24;1.63;;;0.85;;
67195;SDS011;54122;53.538;49.366;2023-08-08T09:40:01;1.98;;;0.95;;
67195;SDS011;54122;53.538;49.366;2023-08-08T09:42:33;1.92;;;0.88;;
67195;SDS011;54122;53.538;49.366;2023-08-08T09:45:00;2.05;;;0.93;;
67195;SDS011;54122;53.538;49.366;2023-08-08T09:47:27;4.50;;;0.95;;
67195;SDS011;54122;53.538;49.366;2023-08-08T09:50:00;5.22;;;1.20;;
67195;SDS011;54122;53.538;49.366;2023-08-08T09:52:30;2.20;;;0.80;;
67195;SDS011;54122;53.538;49.366;2023-08-08T09:54:58;2.15;;;1.00;;
67195;SDS011;54122;53.538;49.366;2023-08-08T09:57:25;8.95;;;1.00;;
67195;SDS011;54122;53.538;49.366;2023-08-08T09:59:52;2.13;;;1.10;;
67195;SDS011;54122;53.538;49.366;2023-08-08T10:02:18;6.63;;;1.30;;
67195;SDS011;54122;53.538;49.366;2023-08-08T10:04:45;1.90;;;0.60;;
67195;SDS011;54122;53.538;49.366;2023-08-08T10:07:12;4.45;;;1.10;;
67195;SDS011;54122;53.538;49.366;2023-08-08T10:09:38;3.35;;;1.30;;
67195;SDS011;54122;53.538;49.366;2023-08-08T10:12:05;4.18;;;1.10;;
67195;SDS011;54122;53.538;49.366;2023-08-08T10:14:34;1.60;;;0.93;;
67195;SDS011;54122;53.538;49.366;2023-08-08T10:17:02;8.38;;;1.15;;
67195;SDS011;54122;53.538;49.366;2023-08-08T10:19:29;3.15;;;1.30;;
67195;SDS011;54122;53.538;49.366;2023-08-08T10:22:05;1.17;;;0.82;;
67195;SDS011;54122;53.538;49.366;2023-08-08T10:24:33;1.75;;;0.80;;
67195;SDS011;54122;53.538;49.366;2023-08-08T10:27:01;1.88;;;0.80;;
67195;SDS011;54122;53.538;49.366;2023-08-08T10:29:29;2.28;;;1.00;;
67195;SDS011;54122;53.538;49.366;2023-08-08T10:32:01;2.65;;;0.95;;
67195;SDS011;54122;53.538;49.366;2023-08-08T10:34:39;8.23;;;1.08;;
67195;SDS011;54122;53.538;49.366;2023-08-08T10:37:13;2.83;;;1.10;;
67195;SDS011;54122;53.538;49.366;2023-08-08T10:39:54;2.33;;;1.05;;
67195;SDS011;54122;53.538;49.366;2023-08-08T10:42:24;1.23;;;1.00;;
67195;SDS011;54122;53.538;49.366;2023-08-08T10:44:52;2.33;;;0.90;;
67195;SDS011;54122;53.538;49.366;2023-08-08T10:47:23;1.73;;;0.98;;
67195;SDS011;54122;53.538;49.366;2023-08-08T10:50:11;0.75;;;0.70;;
67195;SDS011;54122;53.538;49.366;2023-08-08T10:58:04;1.08;;;0.98;;
67195;SDS011;54122;53.538;49.366;2023-08-08T11:00:33;0.88;;;0.70;;
67195;SDS011;54122;53.538;49.366;2023-08-08T11:03:02;1.13;;;0.82;;
67195;SDS011;54122;53.538;49.366;2023-08-08T11:05:32;1.30;;;0.90;;
67195;SDS011;54122;53.538;49.366;2023-08-08T11:08:00;6.65;;;1.08;;
67195;SDS011;54122;53.538;49.366;2023-08-08T11:10:27;3.78;;;1.00;;
67195;SDS011;54122;53.538;49.366;2023-08-08T11:13:03;1.60;;;1.10;;
67195;SDS011;54122;53.538;49.366;2023-08-08T11:15:32;1.70;;;0.90;;
67195;SDS011;54122;53.538;49.366;2023-08-08T11:17:59;5.15;;;0.80;;
67195;SDS011;54122;53.538;49.366;2023-08-08T11:20:31;6.13;;;1.10;;
67195;SDS011;54122;53.538;49.366;2023-08-08T11:22:59;1.85;;;0.80;;
67195;SDS011;54122;53.538;49.366;2023-08-08T11:25:26;1.52;;;0.63;;
67195;SDS011;54122;53.538;49.366;2023-08-08T11:27:54;3.45;;;0.95;;
67195;SDS011;54122;53.538;49.366;2023-08-08T11:30:21;10.82;;;0.90;;
67195;SDS011;54122;53.538;49.366;2023-08-08T11:32:49;3.08;;;1.00;;
67195;SDS011;54122;53.538;49.366;2023-08-08T11:35:16;2.20;;;1.00;;
67195;SDS011;54122;53.538;49.366;2023-08-08T11:37:44;4.38;;;0.85;;
67195;SDS011;54122;53.538;49.366;2023-08-08T11:40:12;3.35;;;0.90;;
67195;SDS011;54122;53.538;49.366;2023-08-08T11:42:39;1.05;;;0.70;;
67195;SDS011;54122;53.538;49.366;2023-08-08T11:45:10;1.08;;;0.90;;
67195;SDS011;54122;53.538;49.366;2023-08-08T11:47:38;6.10;;;1.20;;
67195;SDS011;54122;53.538;49.366;2023-08-08T11:50:06;4.22;;;0.90;;
67195;SDS011;54122;53.538;49.366;2023-08-08T11:52:35;1.30;;;0.90;;
67195;SDS011;54122;53.538;49.366;2023-08-08T11:55:05;3.65;;;0.80;;
67195;SDS011;54122;53.538;49.366;2023-08-08T11:57:33;1.27;;;0.90;;
67195;SDS011;54122;53.538;49.366;2023-08-08T12:00:02;1.77;;;0.70;;
67195;SDS011;54122;53.538;49.366;2023-08-08T12:02:32;1.55;;;0.73;;
67195;SDS011;54122;53.538;49.366;2023-08-08T12:05:09;0.88;;;0.65;;
67195;SDS011;54122;53.538;49.366;2023-08-08T12:07:37;2.08;;;0.90;;
67195;SDS011;54122;53.538;49.366;2023-08-08T12:10:13;3.15;;;0.80;;
67195;SDS011;54122;53.538;49.366;2023-08-08T12:12:41;3.13;;;0.80;;
67195;SDS011;54122;53.538;49.366;2023-08-08T12:15:08;3.65;;;0.90;;
67195;SDS011;54122;53.538;49.366;2023-08-08T12:17:35;2.55;;;0.80;;
67195;SDS011;54122;53.538;49.366;2023-08-08T12:20:06;1.38;;;0.80;;
67195;SDS011;54122;53.538;49.366;2023-08-08T12:22:33;0.70;;;0.70;;
67195;SDS011;54122;53.538;49.366;2023-08-08T12:25:00;0.93;;;0.80;;
67195;SDS011;54122;53.538;49.366;2023-08-08T12:27:26;0.75;;;0.60;;
67195;SDS011;54122;53.538;49.366;2023-08-08T12:29:52;0.80;;;0.60;;
67195;SDS011;54122;53.538;49.366;2023-08-08T12:32:21;0.93;;;0.60;;
67195;SDS011;54122;53.538;49.366;2023-08-08T12:34:52;0.73;;;0.60;;
67195;SDS011;54122;53.538;49.366;2023-08-08T12:37:18;1.05;;;0.95;;
67195;SDS011;54122;53.538;49.366;2023-08-08T12:39:44;1.17;;;0.77;;
67195;SDS011;54122;53.538;49.366;2023-08-08T12:42:10;2.05;;;0.85;;
67195;SDS011;54122;53.538;49.366;2023-08-08T12:44:36;4.03;;;0.70;;
67195;SDS011;54122;53.538;49.366;2023-08-08T12:47:02;1.88;;;0.75;;
67195;SDS011;54122;53.538;49.366;2023-08-08T12:49:29;1.77;;;0.88;;
67195;SDS011;54122;53.538;49.366;2023-08-08T12:51:55;4.43;;;0.90;;
67195;SDS011;54122;53.538;49.366;2023-08-08T12:54:21;1.73;;;0.80;;
67195;SDS011;54122;53.538;49.366;2023-08-08T12:56:48;2.17;;;0.70;;
67195;SDS011;54122;53.538;49.366;2023-08-08T12:59:14;5.65;;;1.00;;
67195;SDS011;54122;53.538;49.366;2023-08-08T13:01:40;2.45;;;0.82;;
67195;SDS011;54122;53.538;49.366;2023-08-08T13:04:06;6.65;;;0.93;;
67195;SDS011;54122;53.538;49.366;2023-08-08T13:06:32;5.18;;;0.68;;
67195;SDS011;54122;53.538;49.366;2023-08-08T13:08:59;1.45;;;0.85;;
67195;SDS011;54122;53.538;49.366;2023-08-08T13:11:28;1.50;;;0.70;;
67195;SDS011;54122;53.538;49.366;2023-08-08T13:13:54;0.75;;;0.60;;
67195;SDS011;54122;53.538;49.366;2023-08-08T13:16:21;1.17;;;0.70;;
67195;SDS011;54122;53.538;49.366;2023-08-08T13:18:50;0.60;;;0.60;;
67195;SDS011;54122;53.538;49.366;2023-08-08T13:21:16;3.95;;;0.75;;
67195;SDS011;54122;53.538;49.366;2023-08-08T13:23:42;1.63;;;0.77;;
67195;SDS011;54122;53.538;49.366;2023-08-08T13:26:11;2.00;;;0.63;;
67195;SDS011;54122;53.538;49.366;2023-08-08T13:28:37;2.92;;;0.70;;
67195;SDS011;54122;53.538;49.366;2023-08-08T13:31:04;1.35;;;0.60;;
67195;SDS011;54122;53.538;49.366;2023-08-08T13:33:33;0.95;;;0.60;;
67195;SDS011;54122;53.538;49.366;2023-08-08T13:35:59;1.17;;;0.70;;
67195;SDS011;54122;53.538;49.366;2023-08-08T13:38:26;1.60;;;0.70;;
67195;SDS011;54122;53.538;49.366;2023-08-08T13:40:52;3.50;;;1.25;;
67195;SDS011;54122;53.538;49.366;2023-08-08T13:43:19;3.90;;;0.90;;
67195;SDS011;54122;53.538;49.366;2023-08-08T13:45:45;1.33;;;0.90;;
67195;SDS011;54122;53.538;49.366;2023-08-08T13:48:11;5.20;;;1.30;;
67195;SDS011;54122;53.538;49.366;2023-08-08T13:50:37;1.60;;;0.82;;
67195;SDS011;54122;53.538;49.366;2023-08-08T13:53:04;6.78;;;1.98;;
67195;SDS011;54122;53.538;49.366;2023-08-08T13:55:30;1.67;;;1.10;;
67195;SDS011;54122;53.538;49.366;2023-08-08T13:57:57;0.98;;;0.65;;
67195;SDS011;54122;53.538;49.366;2023-08-08T14:00:24;1.25;;;0.77;;
67195;SDS011;54122;53.538;49.366;2023-08-08T14:02:50;1.55;;;0.90;;
67195;SDS011;54122;53.538;49.366;2023-08-08T14:05:16;1.25;;;0.93;;
67195;SDS011;54122;53.538;49.366;2023-08-08T14:07:42;4.00;;;1.20;;
67195;SDS011;54122;53.538;49.366;2023-08-08T14:10:08;0.95;;;0.63;;
67195;SDS011;54122;53.538;49.366;2023-08-08T14:12:35;1.65;;;0.90;;
67195;SDS011;54122;53.538;49.366;2023-08-08T14:15:01;4.35;;;0.80;;
67195;SDS011;54122;53.538;49.366;2023-08-08T14:17:29;0.70;;;0.65;;
67195;SDS011;54122;53.538;49.366;2023-08-08T14:19:55;1.65;;;0.70;;
67195;SDS011;54122;53.538;49.366;2023-08-08T14:22:22;6.38;;;1.13;;
67195;SDS011;54122;53.538;49.366;2023-08-08T14:24:48;1.90;;;0.77;;
67195;SDS011;54122;53.538;49.366;2023-08-08T14:27:15;2.70;;;0.82;;
67195;SDS011;54122;53.538;49.366;2023-08-08T14:29:41;1.00;;;0.70;;
67195;SDS011;54122;53.538;49.366;2023-08-08T14:32:07;1.20;;;0.68;;
67195;SDS011;54122;53.538;49.366;2023-08-08T14:34:33;1.85;;;0.65;;
67195;SDS011;54122;53.538;49.366;2023-08-08T14:37:00;3.13;;;0.77;;
67195;SDS011;54122;53.538;49.366;2023-08-08T14:39:27;2.80;;;0.60;;
67195;SDS011;54122;53.538;49.366;2023-08-08T14:41:54;1.42;;;0.63;;
67195;SDS011;54122;53.538;49.366;2023-08-08T14:44:21;0.93;;;0.70;;
67195;SDS011;54122;53.538;49.366;2023-08-08T14:46:47;5.55;;;1.05;;
67195;SDS011;54122;53.538;49.366;2023-08-08T14:49:13;6.82;;;0.80;;
67195;SDS011;54122;53.538;49.366;2023-08-08T14:51:40;1.15;;;0.63;;
67195;SDS011;54122;53.538;49.366;2023-08-08T14:54:12;10.57;;;1.08;;
67195;SDS011;54122;53.538;49.366;2023-08-08T14:56:39;0.65;;;0.50;;
67195;SDS011;54122;53.538;49.366;2023-08-08T14:59:06;7.53;;;0.80;;
67195;SDS011;54122;53.538;49.366;2023-08-08T15:01:32;1.15;;;0.60;;
67195;SDS011;54122;53.538;49.366;2023-08-08T15:03:58;1.38;;;0.80;;
67195;SDS011;54122;53.538;49.366;2023-08-08T15:06:24;0.85;;;0.65;;
67195;SDS011;54122;53.538;49.366;2023-08-08T15:08:51;4.63;;;0.90;;
67195;SDS011;54122;53.538;49.366;2023-08-08T15:11:17;3.85;;;0.70;;
67195;SDS011;54122;53.538;49.366;2023-08-08T15:13:44;5.15;;;0.70;;
67195;SDS011;54122;53.538;49.366;2023-08-08T15:16:10;1.00;;;0.68;;
67195;SDS011;54122;53.538;49.366;2023-08-08T15:18:36;1.05;;;0.73;;
67195;SDS011;54122;53.538;49.366;2023-08-08T15:21:02;2.22;;;0.70;;
67195;SDS011;54122;53.538;49.366;2023-08-08T15:23:28;0.60;;;0.50;;
67195;SDS011;54122;53.538;49.366;2023-08-08T15:25:54;1.58;;;0.70;;
67195;SDS011;54122;53.538;49.366;2023-08-08T15:28:21;4.82;;;0.80;;
67195;SDS011;54122;53.538;49.366;2023-08-08T15:30:48;3.70;;;0.70;;
67195;SDS011;54122;53.538;49.366;2023-08-08T15:33:15;1.35;;;0.80;;
67195;SDS011;54122;53.538;49.366;2023-08-08T15:35:41;0.85;;;0.70;;
67195;SDS011;54122;53.538;49.366;2023-08-08T15:38:07;5.18;;;1.25;;
67195;SDS011;54122;53.538;49.366;2023-08-08T15:40:33;1.58;;;1.10;;
67195;SDS011;54122;53.538;49.366;2023-08-08T15:42:59;6.30;;;1.00;;
67195;SDS011;54122;53.538;49.366;2023-08-08T15:45:25;1.63;;;1.08;;
67195;SDS011;54122;53.538;49.366;2023-08-08T15:47:51;3.97;;;1.08;;
67195;SDS011;54122;53.538;49.366;2023-08-08T15:50:18;3.60;;;1.20;;
67195;SDS011;54122;53.538;49.366;2023-08-08T15:52:44;1.30;;;0.80;;
67195;SDS011;54122;53.538;49.366;2023-08-08T15:55:11;0.80;;;0.57;;
67195;SDS011;54122;53.538;49.366;2023-08-08T15:57:37;4.88;;;0.75;;
67195;SDS011;54122;53.538;49.366;2023-08-08T16:00:04;0.98;;;0.65;;
67195;SDS011;54122;53.538;49.366;2023-08-08T16:02:31;4.68;;;0.73;;
67195;SDS011;54122;53.538;49.366;2023-08-08T16:04:57;1.45;;;0.80;;
67195;SDS011;54122;53.538;49.366;2023-08-08T16:07:24;1.55;;;0.70;;
67195;SDS011;54122;53.538;49.366;2023-08-08T16:09:50;2.47;;;1.02;;
67195;SDS011;54122;53.538;49.366;2023-08-08T16:12:16;5.93;;;0.60;;
67195;SDS011;54122;53.538;49.366;2023-08-08T16:14:42;8.82;;;0.80;;
67195;SDS011;54122;53.538;49.366;2023-08-08T16:17:08;7.57;;;0.75;;
67195;SDS011;54122;53.538;49.366;2023-08-08T16:19:34;2.38;;;0.90;;
67195;SDS011;54122;53.538;49.366;2023-08-08T16:22:01;5.55;;;1.20;;
67195;SDS011;54122;53.538;49.366;2023-08-08T16:24:28;2.08;;;1.08;;
67195;SDS011;54122;53.538;49.366;2023-08-08T16:26:54;3.28;;;1.10;;
67195;SDS011;54122;53.538;49.366;2023-08-08T16:29:20;7.90;;;1.05;;
67195;SDS011;54122;53.538;49.366;2023-08-08T16:31:46;1.05;;;0.65;;
67195;SDS011;54122;53.538;49.366;2023-08-08T16:34:13;2.05;;;0.90;;
67195;SDS011;54122;53.538;49.366;2023-08-08T16:36:39;7.68;;;1.00;;
67195;SDS011;54122;53.538;49.366;2023-08-08T16:39:05;6.97;;;1.27;;
67195;SDS011;54122;53.538;49.366;2023-08-08T16:41:34;1.83;;;1.00;;
67195;SDS011;54122;53.538;49.366;2023-08-08T16:44:01;5.80;;;1.25;;
67195;SDS011;54122;53.538;49.366;2023-08-08T16:46:30;3.10;;;1.13;;
67195;SDS011;54122;53.538;49.366;2023-08-08T16:48:57;14.95;;;1.30;;
67195;SDS011;54122;53.538;49.366;2023-08-08T16:51:24;3.53;;;0.90;;
67195;SDS011;54122;53.538;49.366;2023-08-08T16:53:50;1.63;;;1.00;;
67195;SDS011;54122;53.538;49.366;2023-08-08T16:56:17;8.05;;;1.35;;
67195;SDS011;54122;53.538;49.366;2023-08-08T16:58:44;1.20;;;0.85;;
67195;SDS011;54122;53.538;49.366;2023-08-08T17:01:10;9.63;;;1.17;;
67195;SDS011;54122;53.538;49.366;2023-08-08T17:03:38;2.22;;;0.85;;
67195;SDS011;54122;53.538;49.366;2023-08-08T17:06:04;3.47;;;0.70;;
67195;SDS011;54122;53.538;49.366;2023-08-08T17:08:30;2.72;;;1.00;;
67195;SDS011;54122;53.538;49.366;2023-08-08T17:10:56;2.75;;;0.93;;
67195;SDS011;54122;53.538;49.366;2023-08-08T17:13:22;3.38;;;0.80;;
67195;SDS011;54122;53.538;49.366;2023-08-08T17:15:49;2.72;;;1.02;;
67195;SDS011;54122;53.538;49.366;2023-08-08T17:18:15;2.17;;;0.63;;
67195;SDS011;54122;53.538;49.366;2023-08-08T17:20:42;3.50;;;0.93;;
67195;SDS011;54122;53.538;49.366;2023-08-08T17:23:08;2.60;;;0.60;;
67195;SDS011;54122;53.538;49.366;2023-08-08T17:25:34;2.72;;;0.65;;
67195;SDS011;54122;53.538;49.366;2023-08-08T17:28:01;2.35;;;0.93;;
67195;SDS011;54122;53.538;49.366;2023-08-08T17:30:28;3.92;;;0.80;;
67195;SDS011;54122;53.538;49.366;2023-08-08T17:32:54;10.82;;;0.77;;
67195;SDS011;54122;53.538;49.366;2023-08-08T17:35:22;1.58;;;0.73;;
67195;SDS011;54122;53.538;49.366;2023-08-08T17:37:48;6.20;;;0.82;;
67195;SDS011;54122;53.538;49.366;2023-08-08T17:40:14;2.47;;;0.60;;
67195;SDS011;54122;53.538;49.366;2023-08-08T17:42:40;3.40;;;0.65;;
67195;SDS011;54122;53.538;49.366;2023-08-08T17:45:06;6.75;;;0.80;;
67195;SDS011;54122;53.538;49.366;2023-08-08T17:47:33;0.82;;;0.50;;
67195;SDS011;54122;53.538;49.366;2023-08-08T17:49:59;0.70;;;0.50;;
67195;SDS011;54122;53.538;49.366;2023-08-08T17:52:26;0.95;;;0.65;;
67195;SDS011;54122;53.538;49.366;2023-08-08T17:54:52;2.03;;;0.70;;
67195;SDS011;54122;53.538;49.366;2023-08-08T17:57:18;2.40;;;0.90;;
67195;SDS011;54122;53.538;49.366;2023-08-08T17:59:44;3.55;;;0.93;;
67195;SDS011;54122;53.538;49.366;2023-08-08T18:02:10;2.17;;;0.82;;
67195;SDS011;54122;53.538;49.366;2023-08-08T18:04:37;4.55;;;0.88;;
67195;SDS011;54122;53.538;49.366;2023-08-08T18:07:03;7.90;;;0.85;;
67195;SDS011;54122;53.538;49.366;2023-08-08T18:09:29;3.33;;;1.00;;
67195;SDS011;54122;53.538;49.366;2023-08-08T18:11:56;2.05;;;0.82;;
67195;SDS011;54122;53.538;49.366;2023-08-08T18:14:22;5.18;;;1.00;;
67195;SDS011;54122;53.538;49.366;2023-08-08T18:16:48;0.95;;;0.60;;
67195;SDS011;54122;53.538;49.366;2023-08-08T18:19:15;3.13;;;0.90;;
67195;SDS011;54122;53.538;49.366;2023-08-08T18:21:44;1.27;;;0.70;;